Weather observations for the past three days for
Longville, Longville Municipal Airport
Imperial (Metric)
Date Time (cdt) Wind (mph) Vis. (mi.) Weather Sky Cond. Temperature (ºF) Relative Humidity Wind Chill (°F) Heat Index (°F) Pressure Precipitation (in)
Air Dwpt 6 hour altimeter (in) sea level (mb) 1 hr 3 hr 6 hr
Max. Min.
05 06:15 Vrbl 6 10.00 Overcast OVC005 62.6 60.8 94% 30.03 0.0
05 05:55 Vrbl 3 10.00 Overcast OVC005 62.6 60.8 94% 30.02 0.0
05 05:35 SE 6 10.00 Overcast OVC006 62.6 60.6 93% 30.01 0.0
05 05:15 E 5 10.00 Overcast OVC007 63.1 60.8 92% 29.99 0.0
05 04:55 E 6 10.00 Overcast OVC009 63.5 60.4 90% 30 0.0
05 04:35 E 6 10.00 Overcast OVC009 63.5 60.3 89% 30 0.0
05 04:15 Vrbl 5 10.00 Overcast OVC010 63.9 60.8 90% 30.01 0.0
05 03:55 Vrbl 3 10.00 Overcast OVC010 64 60.6 89% 30.02 0.0
05 03:35 SE 5 10.00 Overcast OVC009 64 60.6 89% 30.02 0.0
05 03:15 Vrbl 6 10.00 Overcast OVC009 63.9 60.6 89% 30.02 0.0
05 02:55 Vrbl 3 10.00 Overcast OVC009 64 61 90% 30.02 0.0
05 02:35 Vrbl 3 10.00 Overcast OVC009 64.4 61.2 89% 30.02 0.0
05 02:15 Vrbl 3 10.00 Overcast OVC009 64.8 61.7 90% 30.02 0.0
05 01:55 E 5 10.00 Overcast OVC009 65.3 62.1 89% 30.02 0.0
05 01:35 SE 3 10.00 Overcast OVC010 65.7 61.9 88% 30.03 0.0
05 01:15 E 5 10.00 Overcast OVC009 65.8 62.6 89% 30.03 0.0
05 00:55 Vrbl 3 10.00 Overcast OVC010 66.2 62.8 67.8 66.2 89% 30.03 0.0
05 00:35 SE 5 10.00 Overcast OVC011 66.2 62.6 88% 30.02 0.0
05 00:15 E 3 10.00 Overcast OVC012 66.4 62.8 88% 30.02 0.0
04 23:55 Calm 10.00 Overcast OVC012 66.4 63 89% 30.03 0.0
04 23:35 Vrbl 3 10.00 Overcast OVC012 66.6 62.8 88% 30.03 0.0
04 23:15 Calm 10.00 Overcast OVC014 66.6 63.1 89% 30.03 0.0
04 22:55 Vrbl 3 10.00 Overcast OVC013 66.9 63 87% 30.03 0.0
04 22:15 Calm 10.00 Overcast OVC013 67.1 63.1 87% 30.02 0.0
04 21:55 Calm 10.00 Overcast OVC013 67.3 63.1 87% 30.02 0.0
04 21:35 Calm 10.00 Overcast OVC013 67.5 63.5 87% 30.01 0.0
04 21:15 E 3 10.00 Overcast OVC014 67.3 63.3 87% 30 0.0
04 20:55 E 5 9.00 Overcast OVC014 67.3 63.9 89% 30 0.0
04 20:35 Calm 10.00 Overcast OVC014 66.9 63.9 90% 30 0.0
04 20:15 Calm 10.00 Overcast OVC013 67.1 63.9 89% 30 0.0
04 19:55 Vrbl 3 10.00 Overcast OVC012 67.3 63.5 88% 29.99 0.0
04 19:35 Calm 9.00 Overcast OVC011 67.5 63.3 87% 30 0.0
04 19:15 Calm 10.00 Overcast OVC011 67.6 63.7 87% 29.99 0.0
04 18:55 Calm 10.00 Overcast OVC012 68 63.3 72 65.8 85% 29.99 0.0 0.01
04 18:35 Calm 9.00 Overcast OVC012 68.2 63.5 85% 29.99 0.0
04 18:15 E 5 10.00 Overcast OVC013 68.5 63.5 84% 29.99 0.0
04 17:55 E 3 10.00 Overcast OVC014 69.1 63.3 82% 29.98 0.0
04 17:35 NE 5 10.00 Overcast OVC015 69.8 63.9 82% 29.97 0.0
04 17:15 E 7 10.00 Overcast OVC016 71.1 63.7 78% 29.97 0.0
04 16:55 E 5 10.00 Mostly Cloudy BKN017 71.1 63.7 78% 29.97 0.0 0.01
04 16:35 Vrbl 6 10.00 Overcast OVC017 71.4 63.7 77% 29.97 0.0
04 16:15 NE 5 10.00 Overcast OVC017 71.6 63.7 76% 29.97 0.0
04 15:55 NE 8 10.00 Mostly Cloudy BKN017 71.8 63.7 76% 29.97 0.0
04 15:35 Vrbl 7 10.00 Mostly Cloudy BKN016 71.2 63 75% 29.97 0.0
04 15:15 N 5 10.00 Overcast OVC016 70.3 62.8 77% 29.96 0.0
04 14:55 Vrbl 3 10.00 Overcast OVC014 69.3 62.1 78% 29.97 0.0
04 14:35 Vrbl 5 10.00 Overcast OVC014 68.9 62.2 79% 29.97 0.0
04 14:15 NE 5 10.00 Overcast OVC013 67.8 62.1 82% 29.98 0.0
04 13:55 Calm 10.00 Overcast OVC010 66.9 62.2 85% 29.98 0.0
04 13:35 Vrbl 5 9.00 Overcast OVC008 66.6 62.4 87% 29.98 0.0
04 13:15 Vrbl 3 10.00 Overcast OVC006 66.2 62.6 88% 29.97 0.0
04 12:55 Vrbl 5 8.00 Overcast OVC007 65.8 63.5 66.7 60.8 92% 29.96 0.0
04 12:35 NE 7 9.00 Overcast OVC007 66.4 63.5 91% 29.96 0.0
04 12:15 NE 5 10.00 Overcast OVC005 66.4 63.9 92% 29.96 0.0
04 11:55 N 5 5.00 Fog/Mist OVC006 66.2 64 93% 29.96 0.0
04 11:35 N 5 8.00 Overcast OVC007 66.4 63.9 92% 29.96 0.0
04 11:15 NE 3 10.00 Overcast OVC006 66.6 63.9 91% 29.95 0.0
04 10:55 N 3 10.00 Overcast OVC005 65.7 63.5 93% 29.95 0.0
04 10:35 Calm 10.00 Overcast OVC005 64.9 63 93% 29.94 0.0
04 10:15 Calm 10.00 Overcast OVC004 64.4 62.8 95% 29.95 0.0
04 09:55 Calm 10.00 Overcast OVC004 63.3 62.2 96% 29.94 0.0
04 09:35 E 3 10.00 Overcast OVC003 63 62.1 97% 29.94 0.0
04 09:15 E 6 9.00 Overcast OVC003 62.8 61.9 97% 29.93 0.0
04 08:55 NE 5 10.00 Overcast OVC004 62.2 61.5 98% 29.93 0.0
04 08:35 Vrbl 3 10.00 Overcast OVC003 61.9 61.2 98% 29.93 0.0
04 08:15 NE 5 4.00 Fog/Mist OVC002 61.5 61.2 99% 29.92 0.0
04 07:55 Calm 2.00 Fog/Mist OVC002 61.3 61 99% 29.92 0.0
04 07:35 Vrbl 5 1.25 Fog/Mist OVC002 61.2 60.8 99% 29.92 0.0
04 07:15 N 6 0.50 Fog OVC002 61.2 61 99% 29.91 0.0
04 06:55 Vrbl 6 0.25 Fog OVC002 61 60.6 63.1 59.4 99% 29.89 0.0
04 06:35 Vrbl 5 1.25 Fog/Mist OVC002 61.2 60.8 99% 29.89 0.0
04 06:15 Vrbl 5 1.50 Fog/Mist OVC002 61.7 61.7 100% 29.88 0.0
04 05:55 N 5 0.75 Fog/Mist VV002 60.3 60.1 99% 29.87 0.0
04 05:35 Calm 1.00 Fog/Mist CLR 59.5 59.4 99% 29.86 0.0
04 05:15 Calm 0.75 Fog/Mist CLR 60.3 59.9 99% 29.86 0.0
04 04:55 Calm 1.25 Fog/Mist CLR 61.3 61 99% 29.86 0.0
04 04:35 Calm 10.00 A Few Clouds FEW037 61.9 61.5 99% 29.86 0.0
04 04:15 N 3 10.00 Mostly Cloudy BKN036 63 62.2 98% 29.85 0.0
04 03:55 Calm 10.00 Overcast OVC035 63 62.1 97% 29.85 0.0
04 03:35 Calm 10.00 Overcast OVC035 63.1 62.2 97% 29.85 0.0
04 03:15 Calm 10.00 Overcast OVC036 63 62.2 98% 29.84 0.0
04 02:55 SE 5 10.00 Overcast OVC037 63.1 62.2 97% 29.84 0.0
04 02:35 Calm 10.00 Overcast SCT004 OVC039 62.8 62.2 98% 29.84 0.0
04 02:15 E 3 10.00 Overcast FEW005 OVC044 62.8 62.2 98% 29.85 0.0
04 01:55 N 3 9.00 Mostly Cloudy SCT046 BKN055 61.9 61.5 99% 29.85 0.0
04 01:35 Calm 10.00 Mostly Cloudy BKN055 BKN070 62.6 61.9 98% 29.84 0.0
04 01:15 E 3 10.00 Mostly Cloudy BKN050 BKN150 62.8 61.9 97% 29.84 0.0
04 00:55 E 3 10.00 Overcast SCT012 OVC150 63.5 61.9 66.7 62.6 95% 29.85 0.0 0.55 0.55
04 00:35 NE 9 1.00 Thunderstorm Light Rain Fog/Mist FEW008 BKN017 BKN039 OVC140 62.8 62.1 98% 29.84 0.0 0.55
04 00:15 Vrbl 6 7.00 Light Rain Thunderstorm in Vicinity FEW008 OVC036 64.4 61.9 92% 29.88 0.0
03 23:55 NE 8 10.00 Thunderstorm in Vicinity FEW021 SCT029 OVC035 65.5 60.1 83% 29.87 0.0
03 23:35 E 10 G 20 10.00 Thunderstorm Light Rain FEW020 SCT028 OVC034 66.2 58.8 77% 29.88 0.0
03 23:15 E 8 10.00 Thunderstorm in Vicinity OVC033 65.5 57.9 77% 29.81 0.0
03 22:55 Vrbl 6 10.00 Thunderstorm in Vicinity BKN032 66 57.9 75% 29.83 0.0
03 22:35 SE 8 10.00 Fair CLR 66 57.9 75% 29.82 0.0
03 22:15 SE 9 10.00 A Few Clouds FEW044 66.2 59.5 79% 29.81 0.0
03 21:55 E 10 10.00 Overcast BKN040 OVC048 66.7 62.1 85% 29.83 0.0
03 21:35 E 7 G 17 10.00 Overcast FEW011 OVC038 66.6 62.6 87% 29.83 0.0
03 21:15 E 8 10.00 Overcast FEW011 OVC037 66.2 62.6 88% 29.83 0.0
03 20:55 E 8 10.00 Overcast OVC037 65.8 62.4 89% 29.83 0.0
03 20:35 E 5 10.00 Mostly Cloudy BKN038 65.3 62.2 90% 29.84 0.0
03 20:15 NE 7 10.00 A Few Clouds FEW130 65.1 62.1 90% 29.82 0.0
03 19:55 E 8 10.00 Partly Cloudy SCT140 65.8 62.4 89% 29.81 0.0
03 19:35 E 9 10.00 Mostly Cloudy FEW041 BKN140 66.4 62.6 88% 29.81 0.0
03 19:15 NE 5 10.00 Mostly Cloudy SCT048 SCT060 SCT095 BKN140 66.4 62.8 88% 29.84 0.0
03 18:55 NE 8 8.00 Overcast BKN040 OVC048 65.1 61.2 85.1 65.1 87% 29.83 0.0
03 18:35 E 6 G 17 10.00 Overcast FEW015 OVC037 66 61.2 84% 29.84 0.0
03 18:15 N 13 G 24 9.00 Thunderstorm in Vicinity SCT014 SCT023 OVC041 69.4 63.3 81% 29.84 0.0
03 17:55 Calm 9.00 Overcast BKN044 OVC055 78.6 67.6 69% 81 29.81 0.0
03 17:35 E 5 9.00 Overcast OVC049 78.8 67.3 68% 81 29.79 0.0
03 17:15 Vrbl 6 9.00 Overcast OVC045 79.2 67.6 68% 81 29.76 0.0
03 16:55 Vrbl 7 10.00 Mostly Cloudy FEW034 BKN042 BKN180 81 67.8 64% 84 29.77 0.0
03 16:35 E 8 10.00 Mostly Cloudy BKN180 81.9 67.6 62% 85 29.76 0.0
03 16:15 SE 8 10.00 Mostly Cloudy SCT039 BKN180 83.7 67.8 59% 87 29.77 0.0
03 15:55 SE 7 9.00 A Few Clouds FEW040 82.4 67.5 61% 85 29.77 0.0
03 15:35 E 7 9.00 A Few Clouds FEW037 84 67.3 57% 87 29.79 0.0
03 15:15 SE 9 10.00 A Few Clouds FEW160 83.7 66.2 56% 86 29.79 0.0
03 14:55 Vrbl 7 10.00 Fair CLR 83.3 65.5 55% 85 29.79 0.0
03 14:35 SE 9 10.00 Fair CLR 83.3 65.1 54% 85 29.79 0.0
03 14:15 E 9 10.00 Partly Cloudy SCT065 82 64.6 56% 84 29.8 0.0
03 13:55 E 8 10.00 Overcast FEW040 OVC065 81.7 64.6 56% 83 29.81 0.0
03 13:35 Vrbl 6 10.00 Overcast BKN042 OVC065 80.6 64 57% 82 29.81 0.0
03 13:15 SE 7 10.00 Overcast OVC045 79.7 63.9 59% 81 29.83 0.0
03 12:55 SE 9 10.00 Partly Cloudy SCT055 79.9 63.5 80.8 61.2 57% 81 29.83 0.0
03 12:35 E 8 G 17 10.00 Fair CLR 79.5 62.8 57% 81 29.83 0.0
03 12:15 SE 10 10.00 Fair CLR 78.6 62.2 57% 80 29.84 0.0
03 11:55 Vrbl 7 9.00 Fair CLR 78.4 61.7 57% 80 29.84 0.0
03 11:35 E 8 10.00 Fair CLR 77.4 61 57% 79 29.85 0.0
03 11:15 Vrbl 6 10.00 Fair CLR 75.7 59.7 58% 78 29.85 0.0
03 10:55 Vrbl 5 10.00 Fair CLR 74.5 58.3 57% 29.85 0.0
03 10:35 E 8 10.00 Fair CLR 73.6 57.7 58% 29.86 0.0
03 10:15 Vrbl 6 10.00 A Few Clouds FEW035 72.3 57.9 61% 29.86 0.0
03 09:55 E 6 10.00 Fair CLR 70.3 57.6 64% 29.86 0.0
03 09:35 E 7 10.00 A Few Clouds FEW065 69.8 57.2 64% 29.87 0.0
03 09:15 E 7 10.00 A Few Clouds FEW065 68.9 57.2 66% 29.87 0.0
03 08:35 E 5 10.00 Mostly Cloudy SCT036 SCT045 BKN055 67.1 57.6 72% 29.88 0.0
03 08:15 E 3 10.00 Mostly Cloudy FEW036 BKN044 64.2 57.6 79% 29.88 0.0
03 07:55 E 3 10.00 Overcast OVC040 62.6 57.9 85% 29.88 0.0
03 07:35 E 5 10.00 Overcast OVC040 61.9 57.6 86% 29.88 0.0
03 07:15 E 5 10.00 Overcast OVC042 61.7 57.6 86% 29.88 0.0
03 06:55 NE 5 10.00 Overcast OVC042 60.6 57.4 64.2 57 89% 29.88 0.0
03 06:35 Vrbl 3 10.00 Overcast OVC042 60.1 57.4 91% 29.88 0.0
03 06:15 NE 3 10.00 Mostly Cloudy BKN043 59.5 57.2 92% 29.88 0.0
03 05:55 NE 5 9.00 Fair CLR 59 57 93% 29.88 0.0
03 05:35 NE 3 10.00 Fair CLR 58.5 56.7 94% 29.88 0.0
03 05:15 NE 3 10.00 Fair CLR 57.2 56.3 97% 29.88 0.0
03 04:55 Calm 10.00 Fair CLR 57.7 56.5 96% 29.88 0.0
03 04:35 Calm 10.00 Fair CLR 57.2 56.3 97% 29.87 0.0
03 04:15 Calm 10.00 Fair CLR 57.7 56.8 97% 29.88 0.0
03 03:55 Calm 10.00 Fair CLR 58.1 56.7 95% 29.88 0.0
03 03:35 NE 3 9.00 Fair CLR 58.5 56.8 94% 29.88 0.0
03 03:15 Calm 10.00 Fair CLR 59 57.2 94% 29.88 0.0
03 02:55 Calm 10.00 Fair CLR 59.9 57.6 92% 29.88 0.0
03 02:35 Calm 9.00 Fair CLR 61.2 58.1 90% 29.89 0.0
03 02:15 Calm 10.00 A Few Clouds FEW085 63.9 57.7 81% 29.89 0.0
03 01:55 E 5 10.00 Overcast OVC085 64 58.1 81% 29.89 0.0
03 01:35 E 3 10.00 Overcast OVC085 63.9 58.3 82% 29.9 0.0
03 01:15 E 3 10.00 Mostly Cloudy BKN085 60.4 57.9 91% 29.9 0.0
03 00:55 Calm 10.00 Partly Cloudy SCT080 59 57.4 72.3 58.8 94% 29.9 0.0
03 00:35 Calm 10.00 Partly Cloudy SCT080 59.7 57.7 93% 29.9 0.0
03 00:15 Calm 10.00 A Few Clouds FEW085 59.2 58.1 96% 29.91 0.0
02 23:55 Calm 10.00 A Few Clouds FEW085 59.7 58.5 96% 29.91 0.0
02 23:35 Calm 10.00 Mostly Cloudy BKN085 60.3 58.6 94% 29.91 0.0
02 23:15 Calm 8.00 Overcast OVC085 61.2 59.4 94% 29.91 0.0
02 22:55 Calm 10.00 Overcast OVC090 61.3 59.7 94% 29.91 0.0
02 22:35 Calm 10.00 Mostly Cloudy BKN090 BKN110 60.4 58.5 93% 29.91 0.0
02 22:15 Calm 10.00 Partly Cloudy SCT090 SCT120 60.6 59.2 95% 29.91 0.0
02 21:55 Calm 10.00 Mostly Cloudy BKN095 60.3 57.9 92% 29.91 0.0
02 21:35 Calm 10.00 Partly Cloudy SCT095 60.1 58.6 95% 29.91 0.0
02 21:15 Calm 10.00 Fair CLR 60.6 59 94% 29.9 0.0
02 20:55 Calm 10.00 Fair CLR 61 58.8 93% 29.9 0.0
02 20:35 Calm 10.00 Fair CLR 62.4 58.8 88% 29.9 0.0
02 20:15 Calm 10.00 Fair CLR 63.5 59 85% 29.89 0.0
02 19:55 Calm 10.00 Fair CLR 66.4 57.7 74% 29.89 0.0
02 19:35 Calm 10.00 Fair CLR 67.8 58.8 73% 29.89 0.0
02 19:15 Calm 9.00 Fair CLR 70 59.2 69% 29.89 0.0
02 18:55 Calm 9.00 Fair CLR 75 55.4 81.1 73.9 51% 78 29.9 0.0
02 18:35 Calm 9.00 Fair CLR 76.3 54.3 47% 78 29.89 0.0
02 18:15 Vrbl 3 10.00 Fair CLR 77.2 53.6 44% 78 29.89 0.0
02 17:55 N 3 10.00 Fair CLR 77 52.5 43% 78 29.9 0.0
02 17:35 Calm 10.00 Fair CLR 77.4 53.1 43% 79 29.91 0.0
02 17:15 Calm 10.00 Fair CLR 77.7 53.2 43% 79 29.9 0.0
02 16:55 Vrbl 3 10.00 Fair CLR 77.7 54 44% 79 29.89 0.0
02 16:35 Vrbl 5 10.00 Fair CLR 78.4 54.7 44% 79 29.89 0.0
02 16:15 Vrbl 3 10.00 Fair CLR 78.4 55.4 45% 79 29.9 0.0
02 15:55 W 6 10.00 A Few Clouds FEW049 78.3 55.8 46% 79 29.9 0.0
02 15:35 Vrbl 6 10.00 A Few Clouds FEW048 79.3 57 46% 80 29.9 0.0
02 15:15 Calm 10.00 A Few Clouds FEW046 78.6 56.3 46% 79 29.91 0.0
02 14:55 Vrbl 5 10.00 Fair CLR 79 57 47% 80 29.91 0.0
02 14:35 Vrbl 3 10.00 Fair CLR 78.4 57.6 49% 79 29.91 0.0
02 14:15 Calm 10.00 Fair CLR 76.8 57.6 52% 79 29.92 0.0
02 13:55 Calm 10.00 Fair CLR 75.7 57.4 53% 78 29.92 0.0
02 13:35 Vrbl 6 10.00 A Few Clouds FEW037 75.9 57.4 53% 78 29.93 0.0
02 13:15 Vrbl 3 10.00 A Few Clouds FEW035 73.9 58.3 58% 29.93 0.0
02 12:55 NE 7 10.00 Fair CLR 75 58.6 75.4 51.1 57% 77 29.93 0.0
02 12:35 N 7 10.00 Fair CLR 74.5 58.6 58% 29.93 0.0
02 12:15 Vrbl 3 10.00 A Few Clouds FEW036 73.8 58.1 58% 29.94 0.0
02 11:55 Calm 10.00 Fair CLR 74.3 58.1 57% 29.95 0.0
02 11:35 Vrbl 5 10.00 Fair CLR 74.5 59.2 59% 29.95 0.0
02 11:15 Vrbl 3 10.00 Fair CLR 73.6 60.3 63% 29.94 0.0
02 10:55 Vrbl 6 10.00 Fair CLR 71.8 60.6 68% 29.94 0.0
02 10:35 Vrbl 3 10.00 Fair CLR 71.1 60.3 69% 29.94 0.0
02 10:15 NE 3 10.00 Fair CLR 70.2 60.4 71% 29.94 0.0
02 09:55 Calm 10.00 Fair CLR 68.9 60.4 75% 29.93 0.0
02 09:35 Calm 10.00 Fair CLR 67.8 60.1 76% 29.93 0.0
02 09:15 Calm 10.00 Fair CLR 66.6 60.1 80% 29.93 0.0
02 08:55 Calm 9.00 Fair CLR 64 59.9 87% 29.93 0.0
02 08:35 Calm 9.00 Fair CLR 62.6 59.2 89% 29.94 0.0
02 08:15 Calm 9.00 Fair CLR 60.1 58.1 93% 29.94 0.0
02 07:55 Calm 9.00 Fair CLR 55.9 54.5 95% 29.94 0.0
02 07:35 Calm 9.00 Fair CLR 53.4 52.5 97% 29.93 0.0
02 07:15 Calm 0.75 Fog/Mist CLR 51.8 51.4 99% 29.93 0.0
02 06:55 Calm 0.15 Fog CLR 51.1 50.9 58.6 51.1 99% 29.92 0.0
Date Time (cdt) Wind (mph) Vis. (mi.) Weather Sky Cond. Air Dwpt Max. Min. Relative Humidity Wind Chill (°F) Heat Index (°F) altimeter (in) sea level (mb) 1 hr 3 hr 6 hr
6 hour
Temperature (ºF) Pressure Precipitation (in)